Time;durP1;ratioP1;P1;durP2;ratioP2;P2;SDS_P1;SDS_P2;PMS_P1;PMS_P2;Temp;Humidity;BMP_temperature;BMP_pressure;BME280_temperature;BME280_humidity;BME280_pressure;Samples;Min_cycle;Max_cycle;Signal;HPM_P1;HPM_P2
2023/11/25 00:00:36;;;;;;;;;;;;;;;2.40;74.85;96654.00;5011180;28;20391;-71
2023/11/25 00:03:24;;;;;;;;;;;;;;;2.32;73.72;96659.97;5007173;28;19925;-71
2023/11/25 00:06:15;;;;;;;;;;;;;;;2.43;71.99;96661.44;5005112;28;20004;-72
2023/11/25 00:09:04;;;;;;;;;;;;;;;2.39;71.92;96670.34;5008042;28;19933;-72
2023/11/25 00:11:58;;;;;;;;;;;;;;;2.42;70.41;96641.09;5008240;28;19959;-71
2023/11/25 00:14:46;;;;;;;;;;;;;;;2.36;70.11;96644.91;5004049;28;19929;-72
2023/11/25 00:17:34;;;;;;;;;;;;;;;2.39;69.31;96638.97;5006906;28;20012;-71
2023/11/25 00:20:22;;;;;;;;;;;;;;;2.38;69.50;96652.66;5005948;28;19980;-71
2023/11/25 00:23:12;;;;;;;;;;;;;;;2.42;69.64;96659.84;5005929;28;19925;-72
2023/11/25 00:26:00;;;;;;;;;;;;;;;2.45;69.36;96680.72;5004559;28;19929;-71
2023/11/25 00:28:51;;;;;;;;;;;;;;;2.27;69.30;96678.81;5005024;28;20072;-71
2023/11/25 00:31:39;;;;;;;;;;;;;;;2.22;69.50;96689.59;5007214;28;19942;-71
2023/11/25 00:34:29;;;;;;;;;;;;;;;2.12;69.37;96697.75;5009626;28;20379;-71
2023/11/25 00:37:17;;;;;;;;;;;;;;;2.15;69.46;96702.53;5005954;28;19940;-71
2023/11/25 00:40:09;;;;;;;;;;;;;;;2.27;69.21;96700.25;5007953;28;19926;-71
2023/11/25 00:42:57;;;;;;;;;;;;;;;2.27;68.34;96709.06;5005369;28;19925;-72
2023/11/25 00:45:47;;;;;;;;;;;;;;;2.18;68.86;96712.66;5004497;28;19932;-72
2023/11/25 00:48:35;;;;;;;;;;;;;;;2.25;67.90;96713.94;5005030;28;19932;-71
2023/11/25 00:51:24;;;;;;;;;;;;;;;2.31;68.10;96702.06;4993904;28;20004;-71
2023/11/25 00:54:12;;;;;;;;;;;;;;;2.24;66.73;96711.56;5009397;28;19964;-71
2023/11/25 00:57:01;;;;;;;;;;;;;;;2.28;66.83;96716.03;5009541;28;19933;-71
2023/11/25 00:59:51;;;;;;;;;;;;;;;2.21;65.97;96722.84;5003937;28;19932;-71
2023/11/25 01:02:40;;;;;;;;;;;;;;;2.28;66.77;96728.63;4994282;28;20280;-71
2023/11/25 01:05:28;;;;;;;;;;;;;;;2.29;66.76;96741.75;5006806;28;20051;-71
2023/11/25 01:08:16;;;;;;;;;;;;;;;2.30;66.41;96738.00;4991146;28;19925;-71
2023/11/25 01:11:05;;;;;;;;;;;;;;;2.34;66.64;96755.09;4994353;28;20012;-71
2023/11/25 01:13:53;;;;;;;;;;;;;;;2.40;66.72;96763.06;5001803;28;20070;-72
2023/11/25 01:16:41;;;;;;;;;;;;;;;2.41;66.40;96765.47;5007021;28;19984;-71
2023/11/25 01:19:32;;;;;;;;;;;;;;;2.40;66.54;96769.25;5007679;28;19949;-71
2023/11/25 01:22:20;;;;;;;;;;;;;;;2.38;66.46;96808.91;5005892;28;19929;-72
2023/11/25 01:25:08;;;;;;;;;;;;;;;2.42;66.83;96799.22;4993301;28;20032;-71
2023/11/25 01:27:58;;;;;;;;;;;;;;;2.55;66.04;96809.25;5009845;28;20557;-71
2023/11/25 01:30:46;;;;;;;;;;;;;;;2.58;65.18;96821.31;4993190;28;19926;-71
2023/11/25 01:33:34;;;;;;;;;;;;;;;2.52;65.95;96812.53;5006262;28;20295;-71
2023/11/25 01:36:23;;;;;;;;;;;;;;;2.48;65.34;96816.06;4995776;28;19932;-71
2023/11/25 01:39:11;;;;;;;;;;;;;;;2.49;65.95;96829.16;5007867;28;19929;-71
2023/11/25 01:41:59;;;;;;;;;;;;;;;2.52;65.23;96835.84;5005079;28;20418;-73
2023/11/25 01:44:47;;;;;;;;;;;;;;;2.54;65.65;96836.34;5002551;28;20101;-72
2023/11/25 01:47:36;;;;;;;;;;;;;;;2.72;65.06;96846.34;5004044;28;19934;-72
2023/11/25 01:50:24;;;;;;;;;;;;;;;2.79;65.60;96848.69;5006955;28;19933;-72
2023/11/25 01:53:14;;;;;;;;;;;;;;;2.77;64.90;96869.59;5010124;28;19926;-73
2023/11/25 01:56:04;;;;;;;;;;;;;;;2.31;67.73;96851.34;5014739;28;20446;-72
2023/11/25 01:58:52;;;;;;;;;;;;;;;2.41;68.77;96866.53;5003924;28;20569;-71
2023/11/25 02:01:40;;;;;;;;;;;;;;;2.35;67.48;96877.31;5003995;28;19936;-71
2023/11/25 02:04:28;;;;;;;;;;;;;;;2.48;67.38;96875.03;5001861;28;19933;-71
2023/11/25 02:07:16;;;;;;;;;;;;;;;2.29;66.10;96881.13;5006258;28;19933;-72
2023/11/25 02:10:09;;;;;;;;;;;;;;;2.38;65.66;96889.34;4993800;28;19932;-71
2023/11/25 02:13:00;;;;;;;;;;;;;;;2.45;64.97;96903.22;5003416;28;19940;-72
2023/11/25 02:15:49;;;;;;;;;;;;;;;2.54;64.77;96901.50;5006673;28;20445;-71
2023/11/25 02:18:37;;;;;;;;;;;;;;;2.53;64.30;96907.94;5006566;28;20450;-72
2023/11/25 02:21:25;;;;;;;;;;;;;;;2.47;64.90;96924.38;5002582;28;20387;-72
2023/11/25 02:24:14;;;;;;;;;;;;;;;2.54;64.68;96939.03;5007337;28;20027;-71
2023/11/25 02:27:03;;;;;;;;;;;;;;;2.28;65.99;96930.41;4994735;28;19929;-71
2023/11/25 02:29:52;;;;;;;;;;;;;;;2.44;65.90;96938.31;5001355;28;19936;-71
2023/11/25 02:32:41;;;;;;;;;;;;;;;2.55;65.55;96948.66;4991085;28;19930;-73
2023/11/25 02:35:30;;;;;;;;;;;;;;;2.54;65.98;96955.13;5005378;28;19926;-71
2023/11/25 02:38:18;;;;;;;;;;;;;;;2.56;65.34;96961.03;5005709;28;19933;-71
2023/11/25 02:41:08;;;;;;;;;;;;;;;2.57;65.20;96959.94;5005860;28;19984;-71
2023/11/25 02:43:59;;;;;;;;;;;;;;;2.56;64.92;96961.03;5005779;28;19948;-71
2023/11/25 02:46:49;;;;;;;;;;;;;;;2.47;65.46;96968.06;5005379;28;20020;-71
2023/11/25 02:49:37;;;;;;;;;;;;;;;2.50;65.44;96975.53;5008102;28;19926;-72
2023/11/25 02:52:25;;;;;;;;;;;;;;;2.49;65.69;96970.47;5009067;28;20295;-72
2023/11/25 02:55:14;;;;;;;;;;;;;;;2.48;65.48;96975.03;5008510;28;19957;-72
2023/11/25 02:58:03;;;;;;;;;;;;;;;2.53;66.05;96983.03;5007315;28;19933;-72
2023/11/25 03:01:00;;;;;;;;;;;;;;;2.61;65.18;96979.75;5012066;28;19940;-72
2023/11/25 03:03:49;;;;;;;;;;;;;;;2.52;65.65;96984.09;5005984;28;19933;-72
2023/11/25 03:06:37;;;;;;;;;;;;;;;2.38;65.22;96985.81;4995850;28;20375;-72
2023/11/25 03:09:26;;;;;;;;;;;;;;;2.41;65.15;96985.28;4995259;28;20398;-71
2023/11/25 03:12:14;;;;;;;;;;;;;;;2.41;66.09;96993.31;4995993;28;19933;-72
2023/11/25 03:15:03;;;;;;;;;;;;;;;2.42;65.63;97002.16;4994737;28;20422;-72
2023/11/25 03:17:55;;;;;;;;;;;;;;;2.55;66.00;97013.03;5008506;28;19997;-71
2023/11/25 03:20:43;;;;;;;;;;;;;;;2.45;65.82;97015.81;5009603;28;20387;-71
2023/11/25 03:23:32;;;;;;;;;;;;;;;2.48;65.79;97023.28;5010274;28;19940;-71
2023/11/25 03:26:21;;;;;;;;;;;;;;;2.27;65.82;97030.66;5009791;28;19929;-71
2023/11/25 03:29:09;;;;;;;;;;;;;;;2.37;66.41;97043.19;5007232;28;19926;-72
2023/11/25 03:31:59;;;;;;;;;;;;;;;2.25;66.53;97048.91;5005680;28;19941;-71
2023/11/25 03:34:47;;;;;;;;;;;;;;;2.42;66.11;97045.84;4993574;28;20394;-71
2023/11/25 03:37:35;;;;;;;;;;;;;;;2.38;66.34;97050.16;4994926;28;20060;-71
2023/11/25 03:40:24;;;;;;;;;;;;;;;2.47;65.29;97056.53;5005359;28;20310;-71
2023/11/25 03:43:13;;;;;;;;;;;;;;;2.48;65.57;97060.00;4994446;28;20019;-71
2023/11/25 03:46:01;;;;;;;;;;;;;;;2.33;65.42;97068.97;5011183;28;19929;-71
2023/11/25 03:48:51;;;;;;;;;;;;;;;2.25;65.48;97073.03;5010935;28;19929;-73
2023/11/25 03:51:39;;;;;;;;;;;;;;;2.05;65.62;97073.16;5004869;28;19926;-72
2023/11/25 03:54:29;;;;;;;;;;;;;;;2.09;65.41;97068.84;4994440;28;20024;-72
2023/11/25 03:57:17;;;;;;;;;;;;;;;2.24;65.63;97079.47;4998271;28;19932;-72
2023/11/25 04:00:14;;;;;;;;;;;;;;;2.08;65.42;97089.50;5007894;28;19934;-72
2023/11/25 04:03:02;;;;;;;;;;;;;;;1.98;65.51;97094.09;4997181;28;19934;-72
2023/11/25 04:05:52;;;;;;;;;;;;;;;2.11;65.28;97098.84;5007869;28;19925;-72
2023/11/25 04:08:40;;;;;;;;;;;;;;;2.02;64.87;97103.16;5010863;28;19965;-72
2023/11/25 04:11:29;;;;;;;;;;;;;;;1.94;64.68;97104.56;4999836;28;19940;-72
2023/11/25 04:14:17;;;;;;;;;;;;;;;1.99;65.29;97106.41;5013435;28;19933;-73
2023/11/25 04:17:05;;;;;;;;;;;;;;;1.83;65.04;97105.69;5010116;28;19925;-72
2023/11/25 04:19:57;;;;;;;;;;;;;;;1.89;64.71;97106.47;4999342;28;20398;-74
2023/11/25 04:22:47;;;;;;;;;;;;;;;2.10;64.84;97111.44;5012080;28;19940;-73
2023/11/25 04:25:35;;;;;;;;;;;;;;;2.05;64.19;97116.81;4998827;28;19931;-72
2023/11/25 04:28:24;;;;;;;;;;;;;;;1.86;65.47;97115.81;5015492;28;20384;-76
2023/11/25 04:31:12;;;;;;;;;;;;;;;1.88;65.01;97116.38;5007760;28;19930;-77
2023/11/25 04:34:00;;;;;;;;;;;;;;;1.86;65.68;97117.72;5013953;28;19936;-77
2023/11/25 04:36:50;;;;;;;;;;;;;;;1.57;65.90;97121.03;5015835;28;19925;-78
2023/11/25 04:39:39;;;;;;;;;;;;;;;1.75;65.92;97127.66;5012412;28;20474;-73
2023/11/25 04:42:27;;;;;;;;;;;;;;;2.07;64.83;97130.72;5009189;28;19925;-72
2023/11/25 04:45:16;;;;;;;;;;;;;;;1.77;65.96;97136.25;5014460;28;20306;-72
2023/11/25 04:48:05;;;;;;;;;;;;;;;1.69;66.04;97134.09;5011485;28;20012;-72
2023/11/25 04:50:53;;;;;;;;;;;;;;;1.65;66.10;97144.59;5007632;28;20406;-71
2023/11/25 04:53:41;;;;;;;;;;;;;;;1.68;66.22;97143.22;5010381;28;19925;-72
2023/11/25 04:56:31;;;;;;;;;;;;;;;1.48;66.46;97144.88;5009900;28;19925;-72
2023/11/25 04:59:20;;;;;;;;;;;;;;;1.39;66.91;97141.16;5009542;28;19926;-71
2023/11/25 05:02:10;;;;;;;;;;;;;;;1.28;67.03;97151.09;5009387;28;20016;-72
2023/11/25 05:04:59;;;;;;;;;;;;;;;1.31;67.49;97155.09;4994197;28;19964;-71
2023/11/25 05:07:47;;;;;;;;;;;;;;;1.39;67.60;97156.44;5008526;28;19984;-71
2023/11/25 05:10:36;;;;;;;;;;;;;;;1.50;66.56;97160.69;5005691;28;20318;-71
2023/11/25 05:13:26;;;;;;;;;;;;;;;1.36;67.52;97163.09;5010846;28;19989;-71
2023/11/25 05:16:13;;;;;;;;;;;;;;;1.26;67.66;97165.78;4993381;28;20067;-71
2023/11/25 05:19:02;;;;;;;;;;;;;;;1.51;66.54;97156.94;5011266;28;19925;-71
2023/11/25 05:21:50;;;;;;;;;;;;;;;1.54;66.50;97164.41;5006154;28;19926;-71
2023/11/25 05:24:38;;;;;;;;;;;;;;;1.66;66.15;97167.59;5009999;28;19925;-71
2023/11/25 05:27:27;;;;;;;;;;;;;;;1.66;65.66;97167.59;5004703;28;19945;-72
2023/11/25 05:30:17;;;;;;;;;;;;;;;1.41;66.47;97170.31;5006320;28;19925;-71
2023/11/25 05:33:05;;;;;;;;;;;;;;;1.52;66.07;97179.94;5010649;28;20023;-71
2023/11/25 05:35:53;;;;;;;;;;;;;;;1.61;65.79;97180.19;5009774;28;20019;-71
2023/11/25 05:38:41;;;;;;;;;;;;;;;1.63;66.22;97170.81;5006311;28;19929;-72
2023/11/25 05:41:29;;;;;;;;;;;;;;;1.51;65.84;97187.16;5006217;28;19933;-71
2023/11/25 05:44:18;;;;;;;;;;;;;;;1.70;65.99;97186.59;5002045;28;20403;-71
2023/11/25 05:47:08;;;;;;;;;;;;;;;1.72;65.54;97192.50;5000082;28;19933;-71
2023/11/25 05:49:56;;;;;;;;;;;;;;;1.70;65.52;97189.25;5003940;28;20384;-71
2023/11/25 05:52:44;;;;;;;;;;;;;;;1.38;66.34;97187.72;4998878;28;19932;-73
2023/11/25 05:55:33;;;;;;;;;;;;;;;1.31;66.53;97189.88;5006024;28;19932;-71
2023/11/25 05:58:21;;;;;;;;;;;;;;;1.42;66.83;97199.50;5008882;28;20020;-71
2023/11/25 06:01:09;;;;;;;;;;;;;;;1.41;66.06;97202.44;5006560;28;19925;-72
2023/11/25 06:03:59;;;;;;;;;;;;;;;1.48;66.58;97198.41;5003656;28;20108;-71
2023/11/25 06:06:47;;;;;;;;;;;;;;;1.40;66.97;97203.53;4986582;28;19941;-71
2023/11/25 06:09:35;;;;;;;;;;;;;;;1.52;66.14;97214.75;5007114;28;19929;-71
2023/11/25 06:12:23;;;;;;;;;;;;;;;1.42;66.41;97215.53;5000314;28;20299;-71
2023/11/25 06:15:11;;;;;;;;;;;;;;;1.28;66.69;97222.53;5011436;28;19995;-72
2023/11/25 06:17:59;;;;;;;;;;;;;;;1.37;67.03;97217.44;5008293;28;19973;-72
2023/11/25 06:20:52;;;;;;;;;;;;;;;1.51;66.34;97213.94;5006500;28;19926;-72
2023/11/25 06:23:40;;;;;;;;;;;;;;;1.47;66.10;97217.41;5011996;28;19932;-72
2023/11/25 06:26:28;;;;;;;;;;;;;;;1.49;66.18;97217.94;5011934;28;19926;-71
2023/11/25 06:29:17;;;;;;;;;;;;;;;1.61;66.49;97223.03;5013237;28;19936;-72
2023/11/25 06:32:05;;;;;;;;;;;;;;;1.34;66.41;97226.81;5011518;28;20040;-71
2023/11/25 06:34:56;;;;;;;;;;;;;;;1.40;66.69;97228.41;5014332;28;19929;-71
2023/11/25 06:37:46;;;;;;;;;;;;;;;1.52;66.40;97233.47;5014449;28;20564;-72
2023/11/25 06:40:35;;;;;;;;;;;;;;;1.63;65.76;97232.38;5003408;28;19965;-71
2023/11/25 06:43:24;;;;;;;;;;;;;;;1.37;66.54;97245.00;5009268;28;20445;-71
2023/11/25 06:46:14;;;;;;;;;;;;;;;1.66;65.65;97242.56;5010906;28;20475;-71
2023/11/25 06:49:02;;;;;;;;;;;;;;;1.68;65.70;97242.28;5006002;28;19947;-71
2023/11/25 06:51:51;;;;;;;;;;;;;;;1.73;65.31;97244.97;5008429;28;19926;-72
2023/11/25 06:54:40;;;;;;;;;;;;;;;1.80;65.19;97243.59;5010492;28;19926;-71
2023/11/25 06:57:28;;;;;;;;;;;;;;;1.73;65.15;97250.31;5014556;28;19929;-72
2023/11/25 07:00:17;;;;;;;;;;;;;;;1.84;64.99;97244.66;5013295;28;20004;-76
2023/11/25 07:03:05;;;;;;;;;;;;;;;1.90;64.65;97244.66;5004137;28;19940;-71
2023/11/25 07:05:53;;;;;;;;;;;;;;;1.89;64.60;97248.41;5004879;28;20283;-72
2023/11/25 07:08:42;;;;;;;;;;;;;;;1.82;65.34;97240.66;5009423;28;19929;-72
2023/11/25 07:11:34;;;;;;;;;;;;;;;1.72;65.43;97238.00;5008351;28;19926;-72
2023/11/25 07:14:22;;;;;;;;;;;;;;;1.63;65.40;97242.31;5010812;28;19932;-73
2023/11/25 07:17:12;;;;;;;;;;;;;;;1.45;66.69;97241.78;5006922;28;19956;-71
2023/11/25 07:20:00;;;;;;;;;;;;;;;1.62;66.43;97243.38;5009736;28;20403;-71
2023/11/25 07:22:48;;;;;;;;;;;;;;;1.76;65.69;97247.13;5005412;28;19929;-71
2023/11/25 07:25:37;;;;;;;;;;;;;;;1.63;66.07;97248.44;5010746;28;19926;-71
2023/11/25 07:28:27;;;;;;;;;;;;;;;1.53;65.80;97254.63;5013101;28;19925;-71
2023/11/25 07:31:15;;;;;;;;;;;;;;;1.61;66.14;97249.81;5006769;28;20423;-71
2023/11/25 07:34:04;;;;;;;;;;;;;;;1.61;66.33;97257.84;5007338;28;19925;-71
2023/11/25 07:36:52;;;;;;;;;;;;;;;1.62;65.95;97257.56;5001737;28;20019;-71
2023/11/25 07:39:40;;;;;;;;;;;;;;;1.54;66.27;97250.06;5009038;28;21433;-71
2023/11/25 07:42:28;;;;;;;;;;;;;;;1.63;66.52;97248.44;4994527;28;20016;-71
2023/11/25 07:45:17;;;;;;;;;;;;;;;1.67;65.79;97262.13;5003107;28;19925;-71
2023/11/25 07:48:08;;;;;;;;;;;;;;;1.75;66.17;97256.19;5008684;28;19929;-70
2023/11/25 07:50:59;;;;;;;;;;;;;;;1.73;65.95;97250.31;5007716;28;19976;-71
2023/11/25 07:53:47;;;;;;;;;;;;;;;1.84;66.11;97254.59;5005897;28;19937;-71
2023/11/25 07:56:37;;;;;;;;;;;;;;;1.87;65.52;97259.41;5004798;28;20295;-71
2023/11/25 07:59:26;;;;;;;;;;;;;;;1.83;66.21;97252.97;5009436;28;19925;-70
2023/11/25 08:02:17;;;;;;;;;;;;;;;1.99;65.89;97262.59;5002352;28;19979;-71
2023/11/25 08:05:05;;;;;;;;;;;;;;;1.62;67.26;97270.94;4992912;28;19951;-71
2023/11/25 08:07:53;;;;;;;;;;;;;;;1.85;67.21;97272.25;5011008;28;20260;-72
2023/11/25 08:10:41;;;;;;;;;;;;;;;1.74;67.23;97270.66;4992210;28;20440;-71
2023/11/25 08:13:30;;;;;;;;;;;;;;;1.78;67.48;97269.06;5008594;28;20011;-72
2023/11/25 08:16:19;;;;;;;;;;;;;;;1.88;67.55;97277.09;4995979;28;19925;-74
2023/11/25 08:19:08;;;;;;;;;;;;;;;1.93;67.24;97285.09;4991693;28;19929;-72
2023/11/25 08:21:58;;;;;;;;;;;;;;;2.00;67.76;97268.75;5007886;28;20379;-71
2023/11/25 08:24:46;;;;;;;;;;;;;;;1.87;67.88;97272.81;5003269;28;20030;-72
2023/11/25 08:27:34;;;;;;;;;;;;;;;1.87;68.17;97270.13;4982729;28;19933;-71
2023/11/25 08:30:23;;;;;;;;;;;;;;;2.17;67.73;97276.47;5005949;28;20453;-71
2023/11/25 08:33:14;;;;;;;;;;;;;;;2.19;67.68;97277.03;5005243;28;20299;-71
2023/11/25 08:36:04;;;;;;;;;;;;;;;2.02;67.98;97278.09;4996440;28;19926;-72
2023/11/25 08:38:56;;;;;;;;;;;;;;;2.10;68.15;97280.25;5009973;28;19929;-72
2023/11/25 08:41:44;;;;;;;;;;;;;;;2.18;67.83;97280.75;5011833;28;19933;-71
2023/11/25 08:44:32;;;;;;;;;;;;;;;2.10;68.26;97279.44;5010764;28;19925;-71
2023/11/25 08:47:20;;;;;;;;;;;;;;;2.17;68.26;97279.16;5008813;28;20004;-71
2023/11/25 08:50:10;;;;;;;;;;;;;;;2.02;68.21;97283.47;5015593;28;20391;-79
2023/11/25 08:53:02;;;;;;;;;;;;;;;2.34;68.00;97274.25;5015903;28;19936;-72
2023/11/25 08:55:50;;;;;;;;;;;;;;;2.35;68.11;97281.25;5016899;28;20030;-72
2023/11/25 08:58:40;;;;;;;;;;;;;;;2.38;67.79;97283.38;5017831;28;19936;-74
2023/11/25 09:01:31;;;;;;;;;;;;;;;2.25;68.28;97287.44;5013554;28;19929;-71
2023/11/25 09:04:20;;;;;;;;;;;;;;;2.28;67.85;97291.44;5007165;28;19925;-71
2023/11/25 09:07:11;;;;;;;;;;;;;;;2.30;68.05;97286.63;4995287;28;20298;-72
2023/11/25 09:10:04;;;;;;;;;;;;;;;2.34;68.57;97282.31;5010100;28;19925;-72
2023/11/25 09:12:53;;;;;;;;;;;;;;;2.42;68.29;97291.69;5006496;28;19925;-71
2023/11/25 09:15:42;;;;;;;;;;;;;;;2.51;67.96;97290.06;5012224;28;19932;-71
2023/11/25 09:18:31;;;;;;;;;;;;;;;2.59;67.93;97287.56;5011424;28;19926;-71
2023/11/25 09:21:19;;;;;;;;;;;;;;;2.68;68.08;97290.50;5015093;28;20012;-80
2023/11/25 09:24:08;;;;;;;;;;;;;;;2.74;67.48;97285.91;5017641;28;19925;-72
2023/11/25 09:26:57;;;;;;;;;;;;;;;2.83;67.54;97285.06;5016060;28;20008;-72
2023/11/25 09:29:47;;;;;;;;;;;;;;;2.89;66.90;97280.47;5016447;28;20734;-73
2023/11/25 09:32:37;;;;;;;;;;;;;;;2.62;67.21;97278.19;5014485;28;19952;-70
2023/11/25 09:35:25;;;;;;;;;;;;;;;2.80;67.26;97277.56;5017126;28;19932;-72
2023/11/25 09:38:13;;;;;;;;;;;;;;;2.75;66.91;97261.50;5016218;28;19956;-72
2023/11/25 09:41:01;;;;;;;;;;;;;;;2.64;67.51;97265.31;5014288;28;19930;-73
2023/11/25 09:43:51;;;;;;;;;;;;;;;2.92;66.93;97261.13;5014128;28;19929;-72
2023/11/25 09:46:40;;;;;;;;;;;;;;;3.12;66.80;97266.38;5010789;28;19937;-73
2023/11/25 09:49:28;;;;;;;;;;;;;;;3.24;65.53;97255.28;5002088;28;19944;-73
2023/11/25 09:52:16;;;;;;;;;;;;;;;3.31;65.86;97254.97;5007455;28;19926;-72
2023/11/25 09:55:05;;;;;;;;;;;;;;;3.54;64.84;97235.44;5007549;28;19930;-72
2023/11/25 09:57:55;;;;;;;;;;;;;;;3.25;65.78;97246.16;5002084;28;20019;-71
2023/11/25 10:00:44;;;;;;;;;;;;;;;3.34;65.26;97247.16;5003651;28;19939;-72
2023/11/25 10:03:34;;;;;;;;;;;;;;;3.55;64.97;97238.94;5005860;28;19929;-71
2023/11/25 10:06:22;;;;;;;;;;;;;;;3.68;64.50;97239.09;4993535;28;20272;-71
2023/11/25 10:09:11;;;;;;;;;;;;;;;3.54;64.75;97232.75;5003583;28;20303;-72
2023/11/25 10:11:59;;;;;;;;;;;;;;;3.79;64.69;97217.50;5006559;28;19934;-72
2023/11/25 10:14:47;;;;;;;;;;;;;;;3.80;64.09;97221.78;5006834;28;19981;-72
2023/11/25 10:17:36;;;;;;;;;;;;;;;3.82;64.70;97212.34;5004861;28;19933;-71
2023/11/25 10:20:24;;;;;;;;;;;;;;;3.87;64.46;97206.09;5003933;28;19933;-71
2023/11/25 10:23:14;;;;;;;;;;;;;;;4.23;63.43;97192.28;4988696;28;19929;-71
2023/11/25 10:26:04;;;;;;;;;;;;;;;4.37;63.22;97187.81;5005369;28;19936;-70
2023/11/25 10:28:53;;;;;;;;;;;;;;;4.44;62.84;97189.03;5004375;28;19929;-72
2023/11/25 10:31:42;;;;;;;;;;;;;;;4.56;62.56;97180.53;5005556;28;19925;-71
2023/11/25 10:34:32;;;;;;;;;;;;;;;4.12;62.68;97189.72;5008958;28;19925;-71
2023/11/25 10:37:20;;;;;;;;;;;;;;;3.91;64.18;97172.22;5007151;28;19987;-70
2023/11/25 10:40:10;;;;;;;;;;;;;;;3.90;63.90;97163.34;5005073;28;19984;-71
2023/11/25 10:43:02;;;;;;;;;;;;;;;4.15;63.82;97167.59;5003208;28;19925;-71
2023/11/25 10:45:50;;;;;;;;;;;;;;;4.09;64.46;97152.63;5009695;28;19929;-71
2023/11/25 10:48:39;;;;;;;;;;;;;;;4.08;63.68;97151.03;5006300;28;19926;-71
2023/11/25 10:51:29;;;;;;;;;;;;;;;3.93;64.05;97148.53;4995907;28;19972;-71
2023/11/25 10:54:17;;;;;;;;;;;;;;;3.90;64.00;97149.13;5008811;28;19936;-71
2023/11/25 10:57:05;;;;;;;;;;;;;;;3.86;64.66;97156.94;5003723;28;19926;-70
2023/11/25 10:59:56;;;;;;;;;;;;;;;3.91;64.05;97158.78;5004886;28;20007;-70
2023/11/25 11:02:44;;;;;;;;;;;;;;;4.25;63.65;97157.81;4999239;28;19925;-71
2023/11/25 11:05:34;;;;;;;;;;;;;;;4.09;64.10;97155.31;5006415;28;19933;-70
2023/11/25 11:08:25;;;;;;;;;;;;;;;3.83;63.32;97146.75;5009268;28;19926;-71
2023/11/25 11:11:15;;;;;;;;;;;;;;;3.83;63.77;97149.44;5010396;28;19979;-71
2023/11/25 11:14:05;;;;;;;;;;;;;;;3.91;64.72;97139.97;5005670;28;20063;-71
2023/11/25 11:16:55;;;;;;;;;;;;;;;4.26;63.44;97141.41;5005908;28;20367;-70
2023/11/25 11:19:43;;;;;;;;;;;;;;;4.00;64.04;97130.19;5013507;28;19926;-71
2023/11/25 11:22:31;;;;;;;;;;;;;;;4.14;63.19;97139.13;5010139;28;20127;-71
2023/11/25 11:25:21;;;;;;;;;;;;;;;3.96;63.97;97134.53;5011451;28;20407;-71
2023/11/25 11:28:11;;;;;;;;;;;;;;;4.00;63.75;97135.56;5006115;28;19969;-69
2023/11/25 11:31:11;;;;;;;;;;;;;;;3.99;64.21;97131.25;5008916;28;20019;-70
2023/11/25 11:33:59;;;;;;;;;;;;;;;4.10;64.05;97130.06;4990744;28;19934;-70
2023/11/25 11:36:47;;;;;;;;;;;;;;;4.29;64.01;97129.28;5011500;28;19941;-70
2023/11/25 11:39:39;;;;;;;;;;;;;;;4.03;64.47;97134.97;5003723;28;20016;-69
2023/11/25 11:42:32;;;;;;;;;;;;;;;4.09;63.92;97138.41;5007565;28;20395;-69
2023/11/25 11:45:25;;;;;;;;;;;;;;;3.90;63.91;97135.69;5006818;28;19951;-70
2023/11/25 11:48:14;;;;;;;;;;;;;;;4.05;63.82;97114.00;4991341;28;19933;-70
2023/11/25 11:51:02;;;;;;;;;;;;;;;3.86;64.00;97116.63;5007630;28;20016;-70
2023/11/25 11:54:06;;;;;;;;;;;;;;;4.04;63.97;97112.38;5007649;28;19940;-70
2023/11/25 11:57:01;;;;;;;;;;;;;;;4.10;63.57;97116.63;5006576;28;20307;-71
2023/11/25 12:00:01;;;;;;;;;;;;;;;4.07;63.76;97114.50;5010879;28;20380;-70
2023/11/25 12:02:51;;;;;;;;;;;;;;;4.24;63.75;97099.78;5013819;28;20314;-72
2023/11/25 12:05:39;;;;;;;;;;;;;;;4.07;63.69;97108.34;5012166;28;20065;-71
2023/11/25 12:08:28;;;;;;;;;;;;;;;4.16;63.54;97111.97;5012410;28;20304;-73
2023/11/25 12:11:17;;;;;;;;;;;;;;;4.14;63.81;97106.88;5017362;28;20015;-72
2023/11/25 12:14:05;;;;;;;;;;;;;;;4.21;64.17;97101.16;5013268;28;20069;-71
2023/11/25 12:16:55;;;;;;;;;;;;;;;4.06;64.80;97099.47;5010589;28;20394;-74
2023/11/25 12:19:44;;;;;;;;;;;;;;;3.90;66.08;97087.31;5012133;28;19926;-71
2023/11/25 12:22:32;;;;;;;;;;;;;;;3.85;67.44;97092.75;5006657;28;19935;-71
2023/11/25 12:25:23;;;;;;;;;;;;;;;3.91;68.15;97105.03;5003719;28;19926;-71
2023/11/25 12:28:12;;;;;;;;;;;;;;;3.79;69.03;97099.28;5002698;28;19930;-70
2023/11/25 12:31:00;;;;;;;;;;;;;;;3.85;69.55;97090.06;5008045;28;20410;-70
2023/11/25 12:33:49;;;;;;;;;;;;;;;3.57;70.18;97095.22;5005733;28;19937;-70
2023/11/25 12:36:37;;;;;;;;;;;;;;;3.85;70.34;97090.06;5011818;28;20463;-70
2023/11/25 12:39:25;;;;;;;;;;;;;;;3.87;70.98;97085.19;5014121;28;19925;-71
2023/11/25 12:42:14;;;;;;;;;;;;;;;3.79;71.20;97100.06;5013075;28;20458;-71
2023/11/25 12:45:02;;;;;;;;;;;;;;;3.72;70.89;97088.06;5004081;28;19926;-71
2023/11/25 12:47:50;;;;;;;;;;;;;;;3.63;71.62;97090.59;5009714;28;19968;-71
2023/11/25 12:50:54;;;;;;;;;;;;;;;3.81;70.87;97097.09;5005735;28;20303;-71
2023/11/25 12:53:54;;;;;;;;;;;;;;;3.58;70.99;97091.44;5009239;28;19936;-71
2023/11/25 12:56:42;;;;;;;;;;;;;;;3.61;71.49;97087.38;5010359;28;19929;-71
2023/11/25 12:59:32;;;;;;;;;;;;;;;3.78;70.88;97089.59;5010462;28;19929;-71
2023/11/25 13:02:21;;;;;;;;;;;;;;;3.66;71.48;97090.81;5006670;28;19931;-71
2023/11/25 13:05:10;;;;;;;;;;;;;;;3.74;71.56;97086.72;5006244;28;19930;-71
2023/11/25 13:07:58;;;;;;;;;;;;;;;3.67;70.88;97091.59;5005108;28;20426;-74
2023/11/25 13:10:47;;;;;;;;;;;;;;;3.60;71.46;97085.78;5007998;28;19952;-71
2023/11/25 13:13:36;;;;;;;;;;;;;;;3.56;72.00;97079.38;4989790;28;19925;-70
2023/11/25 13:16:25;;;;;;;;;;;;;;;3.62;72.07;97075.53;4987502;28;19926;-71
2023/11/25 13:19:13;;;;;;;;;;;;;;;3.52;71.90;97071.13;5005812;28;20487;-71
2023/11/25 13:22:01;;;;;;;;;;;;;;;3.48;72.05;97064.72;5008003;28;19936;-71
2023/11/25 13:24:51;;;;;;;;;;;;;;;3.50;71.67;97065.22;5011048;28;20004;-71
2023/11/25 13:27:41;;;;;;;;;;;;;;;3.52;71.53;97063.06;5005484;28;20437;-71
2023/11/25 13:30:32;;;;;;;;;;;;;;;3.66;71.11;97063.16;4998760;28;20418;-71
2023/11/25 13:33:20;;;;;;;;;;;;;;;3.68;70.82;97056.41;5008156;28;20020;-71
2023/11/25 13:36:12;;;;;;;;;;;;;;;3.60;70.78;97048.97;5007775;28;19929;-71
2023/11/25 13:39:04;;;;;;;;;;;;;;;3.50;71.02;97048.31;4993273;28;19948;-71
2023/11/25 13:41:52;;;;;;;;;;;;;;;3.45;70.57;97040.31;5009188;28;19947;-71
2023/11/25 13:44:41;;;;;;;;;;;;;;;3.61;70.02;97047.09;5003758;28;19929;-71
2023/11/25 13:47:30;;;;;;;;;;;;;;;3.47;69.83;97046.22;5005545;28;19934;-70
2023/11/25 13:50:18;;;;;;;;;;;;;;;3.58;69.38;97045.00;5003999;28;24035;-71
2023/11/25 13:53:06;;;;;;;;;;;;;;;3.67;69.33;97043.25;5010669;28;19948;-71
2023/11/25 13:55:54;;;;;;;;;;;;;;;3.86;69.29;97037.91;5010769;28;19983;-71
2023/11/25 13:58:43;;;;;;;;;;;;;;;3.63;68.93;97037.69;5004633;28;20276;-71
2023/11/25 14:01:33;;;;;;;;;;;;;;;3.68;68.44;97032.25;5010142;28;20060;-71
2023/11/25 14:04:23;;;;;;;;;;;;;;;3.77;68.26;97018.16;5008892;28;19926;-71
2023/11/25 14:07:11;;;;;;;;;;;;;;;3.76;68.28;97028.09;5002762;28;19925;-71
2023/11/25 14:10:03;;;;;;;;;;;;;;;3.83;68.82;97025.84;5009783;28;20023;-71
2023/11/25 14:12:51;;;;;;;;;;;;;;;3.65;68.54;97024.75;5009532;28;20503;-71
2023/11/25 14:15:40;;;;;;;;;;;;;;;3.68;68.80;97028.75;5007029;28;20374;-72
2023/11/25 14:18:31;;;;;;;;;;;;;;;3.64;68.56;97028.53;5005735;28;19925;-70
2023/11/25 14:21:19;;;;;;;;;;;;;;;3.57;69.11;97022.72;5010324;28;20063;-72
2023/11/25 14:24:09;;;;;;;;;;;;;;;3.68;69.72;97024.19;5009617;28;19972;-70
2023/11/25 14:26:57;;;;;;;;;;;;;;;3.70;70.51;97020.41;5003674;28;20012;-71
2023/11/25 14:29:45;;;;;;;;;;;;;;;3.67;71.53;97022.59;5010008;28;19926;-70
2023/11/25 14:32:33;;;;;;;;;;;;;;;3.54;71.43;97017.09;5009992;28;19979;-70
2023/11/25 14:35:24;;;;;;;;;;;;;;;3.61;71.74;97021.03;5010061;28;19926;-70
2023/11/25 14:38:12;;;;;;;;;;;;;;;3.47;72.56;97012.09;5006615;28;19973;-70
2023/11/25 14:41:00;;;;;;;;;;;;;;;3.48;72.65;97019.06;4996212;28;19925;-71
2023/11/25 14:43:49;;;;;;;;;;;;;;;3.39;73.27;97004.66;5008471;28;20506;-71
2023/11/25 14:46:37;;;;;;;;;;;;;;;3.55;73.51;97010.66;5014570;28;19926;-72
2023/11/25 14:49:26;;;;;;;;;;;;;;;3.56;73.17;97004.97;5013194;28;19926;-71
2023/11/25 14:52:15;;;;;;;;;;;;;;;3.57;72.91;97005.78;5013890;28;19933;-71